Terminal Aerodrome Forecast
Issued by NWS Corpus Christi, TX

Home | Current Version | Previous Version | Text Only | Print | Product List | Glossary On
Versions: 1 2 3 4 5 6 7 8 9 10 11 12 13 14 15 16
000
FTUS44 KCRP 261400 AAA
TAFCRP
TAF AMD
KCRP 261433Z 2615/2712 17011KT P6SM FEW020 BKN045
     FM261700 16014G19KT P6SM SCT025 BKN045
      TEMPO 2617/2620 BKN025
     FM270200 15008KT P6SM BKN015
     FM270700 16006KT 4SM BR BKN008 OVC015=

USA.gov is the U.S. government's official web portal to all federal, state and local government web resources and services.